createdAt,value
2022-07-27T00:02:04.234Z,101295.19
2022-07-27T00:04:31.872Z,101285.44
2022-07-27T00:07:00.493Z,101298.44
2022-07-27T00:09:28.087Z,101298.44
2022-07-27T00:11:55.737Z,101286.88
2022-07-27T00:14:23.396Z,101288.56
2022-07-27T00:16:52.376Z,101285.59
2022-07-27T00:19:20.004Z,101290.72
2022-07-27T00:21:47.565Z,101295.00
2022-07-27T00:24:15.374Z,101288.94
2022-07-27T00:26:42.985Z,101285.59
2022-07-27T00:29:10.931Z,101290.19
2022-07-27T00:31:38.790Z,101287.72
2022-07-27T00:34:07.772Z,101288.84
2022-07-27T00:36:35.389Z,101286.28
2022-07-27T00:39:02.996Z,101286.78
2022-07-27T00:41:30.597Z,101282.19
2022-07-27T00:43:59.143Z,101279.34
2022-07-27T00:46:27.925Z,101281.25
2022-07-27T00:48:55.744Z,101282.63
2022-07-27T00:51:25.817Z,101285.13
2022-07-27T00:53:54.680Z,101280.28
2022-07-27T00:56:22.729Z,101285.69
2022-07-27T00:58:52.328Z,101291.22
2022-07-27T01:01:20.444Z,101294.78
2022-07-27T01:03:48.191Z,101294.16
2022-07-27T01:06:16.125Z,101293.50
2022-07-27T01:08:45.125Z,101295.78
2022-07-27T01:11:12.891Z,101291.50
2022-07-27T01:13:42.842Z,101292.44
2022-07-27T01:16:11.107Z,101300.75
2022-07-27T01:18:39.697Z,101303.13
2022-07-27T01:21:09.143Z,101305.19
2022-07-27T01:23:38.431Z,101305.31
2022-07-27T01:26:07.668Z,101304.47
2022-07-27T01:28:35.329Z,101301.84
2022-07-27T01:31:03.017Z,101298.41
2022-07-27T01:33:30.683Z,101298.47
2022-07-27T01:35:58.578Z,101299.66
2022-07-27T01:38:26.273Z,101294.53
2022-07-27T01:40:55.654Z,101299.47
2022-07-27T01:43:23.841Z,101301.44
2022-07-27T01:45:51.426Z,101298.28
2022-07-27T01:48:19.289Z,101297.34
2022-07-27T01:50:47.731Z,101300.72
2022-07-27T01:53:15.624Z,101292.63
2022-07-27T01:55:43.277Z,101294.47
2022-07-27T01:58:12.487Z,101295.56
2022-07-27T02:00:40.676Z,101293.81
2022-07-27T02:03:09.629Z,101290.84
2022-07-27T02:05:38.770Z,101291.78
2022-07-27T02:08:07.817Z,101291.28
2022-07-27T02:10:36.392Z,101293.38
2022-07-27T02:13:03.068Z,101291.56
2022-07-27T02:15:54.844Z,101289.59
2022-07-27T02:18:32.932Z,101283.09
2022-07-27T02:21:04.419Z,101274.88
2022-07-27T02:23:32.398Z,101286.72
2022-07-27T02:25:59.969Z,101281.38
2022-07-27T02:28:27.826Z,101281.22
2022-07-27T02:30:56.842Z,101277.69
2022-07-27T02:33:24.568Z,101274.72
2022-07-27T02:35:52.291Z,101277.16
2022-07-27T02:38:20.187Z,101277.91
2022-07-27T02:40:47.832Z,101279.63
2022-07-27T02:43:15.476Z,101283.34
2022-07-27T02:45:43.123Z,101281.38
2022-07-27T02:48:15.536Z,101283.28
2022-07-27T02:50:43.179Z,101285.13
2022-07-27T02:53:10.772Z,101286.84
2022-07-27T02:55:38.356Z,101283.13
2022-07-27T02:58:05.963Z,101291.50
2022-07-27T03:00:34.113Z,101293.63
2022-07-27T03:03:01.828Z,101283.75
2022-07-27T03:05:31.048Z,101294.03
2022-07-27T03:07:58.672Z,101291.78
2022-07-27T03:10:26.267Z,101288.66
2022-07-27T03:12:53.881Z,101287.53
2022-07-27T03:15:21.493Z,101286.47
2022-07-27T03:17:49.124Z,101282.00
2022-07-27T03:20:16.760Z,101285.41
2022-07-27T03:22:45.712Z,101283.28
2022-07-27T03:25:13.337Z,101280.56
2022-07-27T03:27:41.293Z,101282.13
2022-07-27T03:30:09.847Z,101291.66
2022-07-27T03:32:37.480Z,101285.25
2022-07-27T03:35:05.733Z,101289.59
2022-07-27T03:37:33.369Z,101286.47
2022-07-27T03:40:02.462Z,101293.56
2022-07-27T03:42:30.068Z,101291.72
2022-07-27T03:44:57.673Z,101293.44
2022-07-27T03:47:25.792Z,101292.50
2022-07-27T03:49:53.717Z,101292.44
2022-07-27T03:52:21.561Z,101300.44
2022-07-27T03:54:49.292Z,101305.16
2022-07-27T03:57:18.224Z,101294.63
2022-07-27T03:59:45.820Z,101299.03
2022-07-27T04:02:13.520Z,101304.31
2022-07-27T04:04:41.134Z,101300.81
2022-07-27T04:07:08.789Z,101297.19
2022-07-27T04:09:37.529Z,101299.72
2022-07-27T04:12:07.384Z,101298.56
2022-07-27T04:14:36.335Z,101300.00
2022-07-27T04:17:04.475Z,101297.38
2022-07-27T04:19:32.103Z,101304.28
2022-07-27T04:21:59.779Z,101303.34
2022-07-27T04:24:27.367Z,101305.00
2022-07-27T04:26:54.917Z,101306.63
2022-07-27T04:29:22.920Z,101309.34
2022-07-27T04:31:52.584Z,101306.84
2022-07-27T04:34:20.852Z,101310.25
2022-07-27T04:36:49.811Z,101312.69
2022-07-27T04:39:17.463Z,101318.53
2022-07-27T04:41:45.113Z,101326.38
2022-07-27T04:44:13.004Z,101324.81
2022-07-27T04:46:40.719Z,101326.94
2022-07-27T04:49:10.062Z,101316.97
2022-07-27T04:51:37.961Z,101319.47
2022-07-27T04:54:05.675Z,101322.50
2022-07-27T04:56:33.291Z,101330.53
2022-07-27T04:59:01.224Z,101333.09
2022-07-27T05:01:34.760Z,101346.78
2022-07-27T05:04:04.044Z,101345.94
2022-07-27T05:06:33.241Z,101339.75
2022-07-27T05:09:00.889Z,101337.78
2022-07-27T05:11:28.633Z,101331.25
2022-07-27T05:13:56.225Z,101336.63
2022-07-27T05:16:28.280Z,101327.19
2022-07-27T05:18:56.650Z,101324.03
2022-07-27T05:21:25.049Z,101326.00
2022-07-27T05:23:54.191Z,101307.56
2022-07-27T05:26:23.077Z,101310.50
2022-07-27T05:28:50.984Z,101317.09
2022-07-27T05:31:19.586Z,101319.75
2022-07-27T05:33:49.310Z,101328.03
2022-07-27T05:36:19.008Z,101326.31
2022-07-27T05:38:46.667Z,101328.53
2022-07-27T05:41:15.732Z,101341.44
2022-07-27T05:43:43.364Z,101347.88
2022-07-27T05:46:11.036Z,101346.81
2022-07-27T05:48:38.762Z,101348.69
2022-07-27T05:51:06.648Z,101345.94
2022-07-27T05:53:35.184Z,101335.56
2022-07-27T05:56:02.813Z,101328.38
2022-07-27T05:58:31.955Z,101338.47
2022-07-27T06:01:00.121Z,101347.41
2022-07-27T06:03:28.006Z,101347.34
2022-07-27T06:06:16.381Z,101347.63
2022-07-27T06:08:43.016Z,101344.22
2022-07-27T06:11:10.951Z,101348.81
2022-07-27T06:13:42.444Z,101346.16
2022-07-27T06:16:10.675Z,101348.41
2022-07-27T06:18:38.501Z,101343.31
2022-07-27T06:21:06.695Z,101348.88
2022-07-27T06:23:34.311Z,101351.31
2022-07-27T06:26:01.899Z,101353.13
2022-07-27T06:28:29.500Z,101352.84
2022-07-27T06:30:58.482Z,101353.59
2022-07-27T06:33:29.249Z,101345.91
2022-07-27T06:35:58.409Z,101352.41
2022-07-27T06:38:26.442Z,101350.19
2022-07-27T06:40:54.265Z,101350.91
2022-07-27T06:43:22.647Z,101353.41
2022-07-27T06:45:51.010Z,101349.38
2022-07-27T06:48:21.139Z,101353.25
2022-07-27T06:50:49.271Z,101346.38
2022-07-27T06:53:20.754Z,101358.72
2022-07-27T06:55:48.814Z,101350.84
2022-07-27T06:58:16.541Z,101356.66
2022-07-27T07:00:44.298Z,101355.47
2022-07-27T07:03:12.196Z,101347.50
2022-07-27T07:05:45.045Z,101351.19
2022-07-27T07:08:13.432Z,101359.50
2022-07-27T07:10:41.367Z,101355.09
2022-07-27T07:13:09.558Z,101360.25
2022-07-27T07:15:39.088Z,101361.34
2022-07-27T07:18:08.026Z,101365.91
2022-07-27T07:20:35.738Z,101356.25
2022-07-27T07:23:04.848Z,101369.69
2022-07-27T07:25:32.637Z,101366.59
2022-07-27T07:28:00.794Z,101376.38
2022-07-27T07:30:29.100Z,101372.69
2022-07-27T07:32:57.029Z,101372.03
2022-07-27T07:35:24.751Z,101368.09
2022-07-27T07:37:52.900Z,101364.09
2022-07-27T07:43:10.617Z,101381.06
2022-07-27T07:45:51.335Z,101372.63
2022-07-27T07:48:20.998Z,101374.41
2022-07-27T07:50:51.371Z,101386.88
2022-07-27T07:53:20.224Z,101372.91
2022-07-27T07:55:49.299Z,101376.03
2022-07-27T07:58:16.924Z,101380.94
2022-07-27T08:00:44.747Z,101380.44
2022-07-27T08:03:12.617Z,101378.94
2022-07-27T08:05:40.388Z,101379.91
2022-07-27T08:08:08.025Z,101373.66
2022-07-27T08:10:35.737Z,101384.03
2022-07-27T08:13:04.832Z,101387.69
2022-07-27T08:15:35.632Z,101389.88
2022-07-27T08:18:04.909Z,101387.25
2022-07-27T08:20:32.621Z,101382.50
2022-07-27T08:23:00.426Z,101379.75
2022-07-27T08:25:28.108Z,101388.44
2022-07-27T08:27:56.368Z,101377.78
2022-07-27T08:30:25.773Z,101385.22
2022-07-27T08:32:55.012Z,101386.59
2022-07-27T08:35:23.299Z,101391.38
2022-07-27T08:37:51.364Z,101390.03
2022-07-27T08:43:08.699Z,101391.63
2022-07-27T08:45:38.445Z,101390.28
2022-07-27T08:48:06.919Z,101391.84
2022-07-27T08:50:35.572Z,101393.50
2022-07-27T08:53:05.488Z,101395.06
2022-07-27T08:55:35.053Z,101398.34
2022-07-27T08:58:03.861Z,101394.81
2022-07-27T09:00:32.303Z,101394.84
2022-07-27T09:03:01.691Z,101397.00
2022-07-27T09:05:37.646Z,101393.69
2022-07-27T09:08:13.309Z,101404.34
2022-07-27T09:10:41.661Z,101396.44
2022-07-27T09:13:24.698Z,101398.91
2022-07-27T09:18:43.017Z,101393.13
2022-07-27T09:21:12.649Z,101388.75
2022-07-27T09:23:41.032Z,101395.59
2022-07-27T09:26:29.541Z,101386.66
2022-07-27T09:29:00.353Z,101383.94
2022-07-27T09:31:28.057Z,101385.25
2022-07-27T09:33:58.941Z,101387.06
2022-07-27T09:36:28.809Z,101386.63
2022-07-27T09:39:02.586Z,101379.47
2022-07-27T09:41:40.795Z,101378.50
2022-07-27T09:46:56.072Z,101388.72
2022-07-27T09:49:30.885Z,101386.41
2022-07-27T09:52:01.375Z,101391.81
2022-07-27T09:54:30.109Z,101393.31
2022-07-27T09:57:02.100Z,101384.34
2022-07-27T09:59:30.334Z,101392.81
2022-07-27T10:01:58.320Z,101389.13
2022-07-27T10:04:26.342Z,101386.47
2022-07-27T10:07:04.723Z,101371.72
2022-07-27T10:09:35.763Z,101370.22
2022-07-27T10:12:04.501Z,101388.63
2022-07-27T10:14:33.452Z,101394.53
2022-07-27T10:17:01.504Z,101381.63
2022-07-27T10:19:35.494Z,101390.19
2022-07-27T10:22:04.485Z,101384.81
2022-07-27T10:24:36.256Z,101387.66
2022-07-27T10:27:19.642Z,101396.84
2022-07-27T10:29:48.010Z,101397.31
2022-07-27T10:32:24.323Z,101389.69
2022-07-27T10:34:52.027Z,101388.22
2022-07-27T10:37:27.086Z,101387.66
2022-07-27T10:40:15.968Z,101387.22
2022-07-27T10:42:45.474Z,101382.34
2022-07-27T10:45:17.453Z,101378.63
2022-07-27T10:47:47.020Z,101385.19
2022-07-27T10:50:23.730Z,101380.72
2022-07-27T10:52:54.524Z,101385.50
2022-07-27T10:55:50.339Z,101386.72
2022-07-27T10:58:46.554Z,101387.91
2022-07-27T11:01:16.005Z,101379.13
2022-07-27T11:03:47.470Z,101392.59
2022-07-27T11:10:00.232Z,101393.91
2022-07-27T11:11:59.138Z,101398.38
2022-07-27T11:14:31.295Z,101400.31
2022-07-27T11:17:24.367Z,101403.44
2022-07-27T11:19:53.226Z,101390.69
2022-07-27T11:22:50.125Z,101398.81
2022-07-27T11:25:19.361Z,101406.03
2022-07-27T11:27:48.583Z,101409.72
2022-07-27T11:30:22.897Z,101406.97
2022-07-27T11:32:50.601Z,101406.03
2022-07-27T11:35:20.224Z,101402.03
2022-07-27T11:37:59.123Z,101393.53
2022-07-27T11:43:33.686Z,101389.69
2022-07-27T11:46:15.726Z,101387.97
2022-07-27T11:49:07.495Z,101379.84
2022-07-27T11:51:37.100Z,101389.91
2022-07-27T11:54:06.358Z,101381.91
2022-07-27T11:56:37.109Z,101392.34
2022-07-27T11:59:08.403Z,101368.44
2022-07-27T12:01:37.323Z,101369.31
2022-07-27T12:04:12.712Z,101376.22
2022-07-27T12:06:41.676Z,101370.34
2022-07-27T12:09:12.819Z,101383.88
2022-07-27T12:11:54.565Z,101364.56
2022-07-27T12:14:29.277Z,101366.75
2022-07-27T12:17:11.371Z,101362.44
2022-07-27T12:19:39.709Z,101367.16
2022-07-27T12:22:07.660Z,101357.94
2022-07-27T12:24:37.411Z,101355.72
2022-07-27T12:27:08.665Z,101371.94
2022-07-27T12:29:58.267Z,101366.38
2022-07-27T12:32:26.850Z,101368.34
2022-07-27T12:34:55.669Z,101361.06
2022-07-27T12:37:23.419Z,101353.28
2022-07-27T12:39:51.246Z,101356.13
2022-07-27T12:42:20.229Z,101351.59
2022-07-27T12:44:48.466Z,101359.94
2022-07-27T12:47:33.774Z,101356.94
2022-07-27T12:50:06.598Z,101351.25
2022-07-27T12:52:35.129Z,101349.81
2022-07-27T12:55:04.870Z,101352.03
2022-07-27T12:57:54.563Z,101354.88
2022-07-27T13:00:24.219Z,101346.78
2022-07-27T13:02:53.339Z,101353.38
2022-07-27T13:05:20.988Z,101346.25
2022-07-27T13:07:48.608Z,101349.47
2022-07-27T13:10:18.706Z,101340.28
2022-07-27T13:12:48.741Z,101344.19
2022-07-27T13:15:17.115Z,101354.75
2022-07-27T13:17:45.618Z,101354.16
2022-07-27T13:20:13.968Z,101343.00
2022-07-27T13:22:42.303Z,101344.59
2022-07-27T13:25:16.584Z,101357.09
2022-07-27T13:27:45.308Z,101355.69
2022-07-27T13:30:16.152Z,101353.06
2022-07-27T13:32:43.979Z,101349.66
2022-07-27T13:35:13.209Z,101349.34
2022-07-27T13:37:40.944Z,101345.94
2022-07-27T13:40:09.728Z,101347.78
2022-07-27T13:42:37.593Z,101341.75
2022-07-27T13:45:10.982Z,101340.31
2022-07-27T13:47:41.851Z,101341.47
2022-07-27T13:50:17.081Z,101341.94
2022-07-27T13:52:46.589Z,101338.81
2022-07-27T13:55:14.678Z,101339.94
2022-07-27T13:57:42.399Z,101332.63
2022-07-27T14:00:11.176Z,101331.53
2022-07-27T14:02:41.979Z,101327.88
2022-07-27T14:05:13.128Z,101326.44
2022-07-27T14:07:41.818Z,101343.78
2022-07-27T14:10:30.838Z,101371.66
2022-07-27T14:12:59.346Z,101382.75
2022-07-27T14:15:27.133Z,101379.06
2022-07-27T14:17:56.056Z,101363.44
2022-07-27T14:20:23.891Z,101376.31
2022-07-27T14:22:51.768Z,101372.19
2022-07-27T14:25:19.390Z,101373.38
2022-07-27T14:27:46.991Z,101422.00
2022-07-27T14:30:20.293Z,101417.28
2022-07-27T14:32:48.706Z,101413.00
2022-07-27T14:35:17.862Z,101409.88
2022-07-27T14:37:45.545Z,101418.63
2022-07-27T14:40:14.346Z,101427.66
2022-07-27T14:42:41.993Z,101441.75
2022-07-27T14:45:10.301Z,101429.06
2022-07-27T14:47:37.942Z,101434.31
2022-07-27T14:50:07.996Z,101442.47
2022-07-27T14:52:37.039Z,101438.50
2022-07-27T14:55:05.183Z,101455.56
2022-07-27T14:57:33.065Z,101434.53
2022-07-27T15:00:00.638Z,101451.44
2022-07-27T15:02:28.282Z,101450.72
2022-07-27T15:04:55.976Z,101443.88
2022-07-27T15:07:23.587Z,101450.41
2022-07-27T15:09:52.539Z,101431.00
2022-07-27T15:12:20.134Z,101352.22
2022-07-27T15:14:47.703Z,101334.44
2022-07-27T15:17:15.354Z,101331.19
2022-07-27T15:19:42.964Z,101322.41
2022-07-27T15:22:10.624Z,101315.81
2022-07-27T15:24:38.625Z,101310.03
2022-07-27T15:27:07.699Z,101311.78
2022-07-27T15:29:36.474Z,101320.16
2022-07-27T15:32:04.213Z,101313.31
2022-07-27T15:34:31.861Z,101309.25
2022-07-27T15:36:59.558Z,101325.78
2022-07-27T15:39:27.108Z,101308.38
2022-07-27T15:41:54.728Z,101308.38
2022-07-27T15:44:23.663Z,101321.19
2022-07-27T15:46:51.286Z,101321.19
2022-07-27T15:49:19.539Z,101315.88
2022-07-27T15:51:48.045Z,101314.75
2022-07-27T15:54:15.639Z,101320.41
2022-07-27T15:56:43.264Z,101308.22
2022-07-27T15:59:11.175Z,101312.94
2022-07-27T16:01:40.423Z,101311.47
2022-07-27T16:04:09.219Z,101306.16
2022-07-27T16:06:39.341Z,101311.00
2022-07-27T16:09:09.023Z,101315.63
2022-07-27T16:11:37.311Z,101305.66
2022-07-27T16:14:04.998Z,101316.72
2022-07-27T16:16:32.676Z,101320.91
2022-07-27T16:19:12.832Z,101321.50
2022-07-27T16:21:55.539Z,101316.34
2022-07-27T16:24:24.421Z,101305.66
2022-07-27T16:26:52.061Z,101320.00
2022-07-27T16:29:19.641Z,101306.41
2022-07-27T16:31:47.312Z,101317.88
2022-07-27T16:34:16.398Z,101310.63
2022-07-27T16:36:44.020Z,101306.88
2022-07-27T16:39:11.931Z,101317.56
2022-07-27T16:41:39.711Z,101303.00
2022-07-27T16:44:07.329Z,101305.91
2022-07-27T16:46:34.959Z,101312.81
2022-07-27T16:49:02.674Z,101314.41
2022-07-27T16:51:31.844Z,101309.78
2022-07-27T16:53:59.459Z,101306.00
2022-07-27T16:56:27.097Z,101303.56
2022-07-27T16:58:54.704Z,101309.31
2022-07-27T17:01:26.734Z,101300.53
2022-07-27T17:03:55.235Z,101297.06
2022-07-27T17:06:22.957Z,101301.31
2022-07-27T17:08:51.926Z,101305.84
2022-07-27T17:11:20.995Z,101306.53
2022-07-27T17:13:49.873Z,101305.81
2022-07-27T17:16:17.926Z,101313.00
2022-07-27T17:18:45.616Z,101316.47
2022-07-27T17:21:13.310Z,101318.47
2022-07-27T17:23:41.106Z,101318.41
2022-07-27T17:26:11.073Z,101320.53
2022-07-27T17:28:40.163Z,101311.06
2022-07-27T17:31:09.552Z,101311.78
2022-07-27T17:33:37.645Z,101315.19
2022-07-27T17:36:08.512Z,101311.34
2022-07-27T17:38:39.890Z,101303.13
2022-07-27T17:41:07.560Z,101314.56
2022-07-27T17:43:38.984Z,101304.69
2022-07-27T17:46:07.358Z,101314.09
2022-07-27T17:48:35.281Z,101317.41
2022-07-27T17:51:02.921Z,101320.97
2022-07-27T17:53:30.620Z,101319.13
2022-07-27T17:55:58.225Z,101317.00
2022-07-27T17:58:30.210Z,101317.69
2022-07-27T18:00:59.637Z,101323.25
2022-07-27T18:03:27.440Z,101327.97
2022-07-27T18:05:55.242Z,101326.19
2022-07-27T18:08:22.978Z,101330.00
2022-07-27T18:10:51.392Z,101328.59
2022-07-27T18:13:19.107Z,101327.09
2022-07-27T18:15:50.409Z,101325.56
2022-07-27T18:18:21.964Z,101326.88
2022-07-27T18:20:52.035Z,101337.25
2022-07-27T18:23:20.408Z,101335.03
2022-07-27T18:25:48.226Z,101334.69
2022-07-27T18:28:16.951Z,101342.88
2022-07-27T18:30:45.863Z,101337.44
2022-07-27T18:33:14.408Z,101339.78
2022-07-27T18:35:43.623Z,101336.59
2022-07-27T18:38:11.845Z,101341.72
2022-07-27T18:40:40.915Z,101348.53
2022-07-27T18:43:10.480Z,101354.94
2022-07-27T18:45:38.426Z,101356.31
2022-07-27T18:48:08.355Z,101350.69
2022-07-27T18:50:39.371Z,101357.09
2022-07-27T18:53:09.879Z,101358.31
2022-07-27T18:55:37.857Z,101371.69
2022-07-27T18:58:05.946Z,101363.78
2022-07-27T19:00:33.916Z,101364.59
2022-07-27T19:03:02.063Z,101361.41
2022-07-27T19:05:40.861Z,101372.41
2022-07-27T19:08:13.249Z,101368.09
2022-07-27T19:10:41.967Z,101364.50
2022-07-27T19:13:10.322Z,101367.59
2022-07-27T19:15:38.075Z,101370.25
2022-07-27T19:18:06.182Z,101378.34
2022-07-27T19:20:33.978Z,101386.63
2022-07-27T19:23:01.524Z,101381.34
2022-07-27T19:25:30.758Z,101381.06
2022-07-27T19:27:59.810Z,101385.44
2022-07-27T19:30:27.587Z,101391.91
2022-07-27T19:32:56.277Z,101401.38
2022-07-27T19:35:23.910Z,101399.66
2022-07-27T19:37:51.534Z,101401.88
2022-07-27T19:43:08.291Z,101402.41
2022-07-27T19:45:36.411Z,101409.19
2022-07-27T19:48:05.365Z,101402.63
2022-07-27T19:50:33.086Z,101412.09
2022-07-27T19:53:00.780Z,101411.25
2022-07-27T19:55:28.485Z,101412.38
2022-07-27T19:57:56.130Z,101405.72
2022-07-27T20:00:25.110Z,101413.47
2022-07-27T20:02:53.346Z,101425.44
2022-07-27T20:05:21.110Z,101425.19
2022-07-27T20:07:48.713Z,101417.59
2022-07-27T20:10:16.522Z,101425.28
2022-07-27T20:12:44.147Z,101418.34
2022-07-27T20:15:12.239Z,101417.41
2022-07-27T20:17:41.203Z,101413.81
2022-07-27T20:20:10.613Z,101422.88
2022-07-27T20:22:39.136Z,101412.28
2022-07-27T20:25:08.149Z,101418.38
2022-07-27T20:27:35.792Z,101419.75
2022-07-27T20:30:03.440Z,101411.91
2022-07-27T20:32:31.063Z,101417.88
2022-07-27T20:35:01.165Z,101410.16
2022-07-27T20:37:28.816Z,101415.03
2022-07-27T20:39:56.420Z,101410.84
2022-07-27T20:42:24.016Z,101408.69
2022-07-27T20:44:51.621Z,101413.34
2022-07-27T20:47:19.248Z,101416.94
2022-07-27T20:49:46.876Z,101421.38
2022-07-27T20:52:15.907Z,101421.91
2022-07-27T20:54:43.525Z,101418.00
2022-07-27T20:57:11.178Z,101424.09
2022-07-27T20:59:38.819Z,101425.94
2022-07-27T21:02:07.663Z,101419.09
2022-07-27T21:04:35.435Z,101428.75
2022-07-27T21:07:03.071Z,101425.16
2022-07-27T21:09:32.503Z,101431.09
2022-07-27T21:12:00.166Z,101429.91
2022-07-27T21:14:27.768Z,101426.78
2022-07-27T21:16:55.472Z,101431.59
2022-07-27T21:19:23.098Z,101435.56
2022-07-27T21:21:50.864Z,101439.44
2022-07-27T21:24:18.533Z,101433.69
2022-07-27T21:26:49.376Z,101434.88
2022-07-27T21:29:17.514Z,101437.28
2022-07-27T21:31:46.909Z,101434.16
2022-07-27T21:34:19.861Z,101441.09
2022-07-27T21:36:48.013Z,101439.69
2022-07-27T21:39:15.914Z,101439.44
2022-07-27T21:41:43.552Z,101441.75
2022-07-27T21:44:13.020Z,101441.28
2022-07-27T21:46:40.751Z,101435.56
2022-07-27T21:49:08.561Z,101438.13
2022-07-27T21:51:36.310Z,101435.94
2022-07-27T21:54:04.083Z,101430.66
2022-07-27T21:56:41.074Z,101432.66
2022-07-27T21:59:08.952Z,101426.06
2022-07-27T22:01:38.053Z,101431.34
2022-07-27T22:04:06.142Z,101428.59
2022-07-27T22:06:33.864Z,101433.50
2022-07-27T22:09:02.028Z,101435.53
2022-07-27T22:11:29.672Z,101431.75
2022-07-27T22:13:57.318Z,101434.03
2022-07-27T22:16:25.029Z,101443.72
2022-07-27T22:18:54.541Z,101443.13
2022-07-27T22:21:22.293Z,101438.56
2022-07-27T22:23:49.981Z,101438.97
2022-07-27T22:26:17.802Z,101438.16
2022-07-27T22:28:45.363Z,101437.44
2022-07-27T22:31:22.891Z,101448.41
2022-07-27T22:33:51.291Z,101447.09
2022-07-27T22:36:20.267Z,101445.50
2022-07-27T22:38:47.833Z,101450.72
2022-07-27T22:41:15.681Z,101447.22
2022-07-27T22:43:43.320Z,101453.56
2022-07-27T22:46:10.997Z,101459.03
2022-07-27T22:48:38.721Z,101456.56
2022-07-27T22:51:07.605Z,101456.03
2022-07-27T22:53:38.457Z,101458.84
2022-07-27T22:56:06.271Z,101455.50
2022-07-27T22:58:33.933Z,101454.63
2022-07-27T23:01:01.627Z,101454.19
2022-07-27T23:03:29.317Z,101457.31
2022-07-27T23:05:56.925Z,101450.31
2022-07-27T23:08:24.548Z,101452.88
2022-07-27T23:10:53.484Z,101459.47
2022-07-27T23:13:22.808Z,101459.78
2022-07-27T23:15:50.935Z,101457.47
2022-07-27T23:18:18.961Z,101458.13
2022-07-27T23:20:46.569Z,101459.06
2022-07-27T23:23:16.181Z,101459.06
2022-07-27T23:25:44.826Z,101450.72
2022-07-27T23:28:13.893Z,101452.78
2022-07-27T23:30:41.737Z,101448.63
2022-07-27T23:33:09.384Z,101446.97
2022-07-27T23:35:37.072Z,101443.06
2022-07-27T23:38:04.740Z,101448.69
2022-07-27T23:40:32.370Z,101445.41
2022-07-27T23:43:00.004Z,101442.19
2022-07-27T23:45:28.978Z,101441.03
2022-07-27T23:47:56.675Z,101437.31
2022-07-27T23:50:24.365Z,101432.34
2022-07-27T23:52:52.060Z,101436.63
2022-07-27T23:55:19.637Z,101432.28
2022-07-27T23:57:47.285Z,101443.09
